createdAt,value
2023-04-21T00:00:09.989Z,25.83
2023-04-21T00:04:15.238Z,21.85
2023-04-21T00:08:19.035Z,22.17
2023-04-21T00:12:23.264Z,21.73
2023-04-21T00:16:26.135Z,21.90
2023-04-21T00:20:29.049Z,21.23
2023-04-21T00:24:31.849Z,21.17
2023-04-21T00:28:36.043Z,20.65
2023-04-21T00:32:40.259Z,21.50
2023-04-21T00:36:43.123Z,22.10
2023-04-21T00:40:45.918Z,21.38
2023-04-21T00:44:50.505Z,20.60
2023-04-21T00:48:53.283Z,20.90
2023-04-21T00:52:57.636Z,21.45
2023-04-21T00:57:02.266Z,21.30
2023-04-21T01:01:07.598Z,20.98
2023-04-21T01:05:12.755Z,21.08
2023-04-21T01:09:15.775Z,20.67
2023-04-21T01:13:21.003Z,19.92
2023-04-21T01:17:25.685Z,21.17
2023-04-21T01:21:29.440Z,20.50
2023-04-21T01:25:33.714Z,21.00
2023-04-21T01:29:36.554Z,20.00
2023-04-21T01:33:39.420Z,19.85
2023-04-21T01:37:42.267Z,19.98
2023-04-21T01:41:46.456Z,19.55
2023-04-21T01:45:50.785Z,18.98
2023-04-21T01:49:54.115Z,20.00
2023-04-21T01:53:56.956Z,19.55
2023-04-21T01:58:01.347Z,20.48
2023-04-21T02:02:04.401Z,17.50
2023-04-21T02:06:09.571Z,16.63
2023-04-21T02:10:13.130Z,17.58
2023-04-21T02:18:22.965Z,18.05
2023-04-21T02:22:27.069Z,16.88
2023-04-21T02:26:31.559Z,17.50
2023-04-21T02:30:37.799Z,17.92
2023-04-21T02:34:42.064Z,18.38
2023-04-21T02:38:44.903Z,17.98
2023-04-21T02:42:47.712Z,17.65
2023-04-21T02:46:51.946Z,17.90
2023-04-21T02:50:54.793Z,17.30
2023-04-21T02:54:57.600Z,17.52
2023-04-21T02:59:01.449Z,17.35
2023-04-21T03:03:06.596Z,16.95
2023-04-21T03:07:13.879Z,18.10
2023-04-21T03:11:16.692Z,17.77
2023-04-21T03:15:19.673Z,17.50
2023-04-21T03:19:23.845Z,17.73
2023-04-21T03:23:26.695Z,17.13
2023-04-21T03:27:29.455Z,18.73
2023-04-21T03:31:33.435Z,18.17
2023-04-21T03:35:37.652Z,18.20
2023-04-21T03:39:44.032Z,17.33
2023-04-21T03:43:47.154Z,17.25
2023-04-21T03:47:50.040Z,17.67
2023-04-21T03:51:54.788Z,18.60
2023-04-21T03:55:57.590Z,17.77
2023-04-21T04:00:00.427Z,18.52
2023-04-21T04:04:03.874Z,17.95
2023-04-21T04:08:08.422Z,18.38
2023-04-21T04:12:11.826Z,17.30
2023-04-21T04:16:14.814Z,18.45
2023-04-21T04:20:17.882Z,18.48
2023-04-21T04:24:22.088Z,17.25
2023-04-21T04:28:24.889Z,18.00
2023-04-21T04:32:28.850Z,16.77
2023-04-21T04:36:32.280Z,17.77
2023-04-21T04:40:36.487Z,18.65
2023-04-21T04:44:41.461Z,19.92
2023-04-21T04:48:44.304Z,19.55
2023-04-21T04:52:49.054Z,20.00
2023-04-21T04:56:53.237Z,20.23
2023-04-21T05:00:56.001Z,21.40
2023-04-21T05:04:58.933Z,21.35
2023-04-21T05:09:01.716Z,23.88
2023-04-21T05:13:06.726Z,24.52
2023-04-21T05:17:09.613Z,22.25
2023-04-21T05:21:12.366Z,20.10
2023-04-21T05:25:15.837Z,19.20
2023-04-21T05:29:20.031Z,19.73
2023-04-21T05:33:22.799Z,18.83
2023-04-21T05:37:25.608Z,18.25
2023-04-21T05:41:28.460Z,19.27
2023-04-21T05:45:32.636Z,19.38
2023-04-21T05:49:35.476Z,18.23
2023-04-21T05:53:38.398Z,17.30
2023-04-21T05:57:41.167Z,13.02
2023-04-21T06:01:45.804Z,12.30
2023-04-21T06:05:48.681Z,12.25
2023-04-21T06:09:52.190Z,13.13
2023-04-21T06:13:58.248Z,13.73
2023-04-21T06:18:02.405Z,13.50
2023-04-21T06:22:05.228Z,13.75
2023-04-21T06:26:09.402Z,13.20
2023-04-21T06:30:12.680Z,13.80
2023-04-21T06:34:17.253Z,13.60
2023-04-21T06:38:20.273Z,14.68
2023-04-21T06:42:23.197Z,14.32
2023-04-21T06:46:26.094Z,15.77
2023-04-21T06:50:30.319Z,16.30
2023-04-21T06:54:33.083Z,16.23
2023-04-21T06:58:35.860Z,15.85
2023-04-21T07:02:38.727Z,17.92
2023-04-21T07:06:43.503Z,18.02
2023-04-21T07:10:46.360Z,19.30
2023-04-21T07:14:49.165Z,17.05
2023-04-21T07:18:51.954Z,15.48
2023-04-21T07:22:56.151Z,14.85
2023-04-21T07:26:59.184Z,14.68
2023-04-21T07:31:03.590Z,13.60
2023-04-21T07:35:07.288Z,14.27
2023-04-21T07:39:11.646Z,15.05
2023-04-21T07:43:14.453Z,14.90
2023-04-21T07:47:17.294Z,16.35
2023-04-21T07:51:20.171Z,16.00
2023-04-21T07:55:24.418Z,16.73
2023-04-21T07:59:27.183Z,16.00
2023-04-21T08:03:30.180Z,17.60
2023-04-21T08:07:33.296Z,16.55
2023-04-21T08:11:37.569Z,16.63
2023-04-21T08:15:40.704Z,9.90
2023-04-21T08:19:43.510Z,8.02
2023-04-21T08:23:46.377Z,7.95
2023-04-21T08:27:50.651Z,7.25
2023-04-21T08:31:53.519Z,6.90
2023-04-21T08:40:05.053Z,9.70
2023-04-21T08:44:11.460Z,9.60
2023-04-21T08:48:16.334Z,9.55
2023-04-21T08:52:19.397Z,10.05
2023-04-21T08:56:23.018Z,9.85
2023-04-21T09:00:27.283Z,9.18
2023-04-21T09:04:31.301Z,9.85
2023-04-21T09:08:35.010Z,10.07
2023-04-21T09:12:39.985Z,7.30
2023-04-21T09:16:44.730Z,6.45
2023-04-21T09:20:50.484Z,5.85
2023-04-21T09:24:59.962Z,6.18
2023-04-21T09:29:07.431Z,6.72
2023-04-21T09:33:27.857Z,7.25
2023-04-21T09:37:34.452Z,6.50
2023-04-21T09:41:37.296Z,6.80
2023-04-21T09:45:40.964Z,7.25
2023-04-21T09:49:46.549Z,6.70
2023-04-21T09:53:54.217Z,5.80
2023-04-21T09:58:00.587Z,5.95
2023-04-21T10:02:07.012Z,6.32
2023-04-21T10:06:12.667Z,6.03
2023-04-21T10:10:21.184Z,6.70
2023-04-21T10:14:24.287Z,6.57
2023-04-21T10:18:29.663Z,6.38
2023-04-21T10:22:35.359Z,6.80
2023-04-21T10:26:38.315Z,6.15
2023-04-21T10:30:41.355Z,6.15
2023-04-21T10:34:44.975Z,6.78
2023-04-21T10:38:57.565Z,6.90
2023-04-21T10:43:03.252Z,6.90
2023-04-21T10:47:08.872Z,6.07
2023-04-21T10:51:12.276Z,4.45
2023-04-21T10:55:17.072Z,5.22
2023-04-21T10:59:20.771Z,6.50
2023-04-21T11:03:23.696Z,5.32
2023-04-21T11:07:27.049Z,6.07
2023-04-21T11:11:31.243Z,5.22
2023-04-21T11:15:34.072Z,5.97
2023-04-21T11:19:38.058Z,5.40
2023-04-21T11:23:42.304Z,5.38
2023-04-21T11:27:54.843Z,4.85
2023-04-21T11:31:58.998Z,4.10
2023-04-21T11:36:05.735Z,3.67
2023-04-21T11:40:10.137Z,4.45
2023-04-21T11:44:15.323Z,5.05
2023-04-21T11:48:19.502Z,4.93
2023-04-21T11:52:24.347Z,5.32
2023-04-21T11:56:27.425Z,5.43
2023-04-21T12:00:33.573Z,5.80
2023-04-21T12:04:36.582Z,5.78
2023-04-21T12:08:41.525Z,6.75
2023-04-21T12:12:45.020Z,5.68
2023-04-21T12:16:51.847Z,6.72
2023-04-21T12:20:54.724Z,6.82
2023-04-21T12:24:57.531Z,6.75
2023-04-21T12:29:01.152Z,6.03
2023-04-21T12:33:05.247Z,5.75
2023-04-21T12:37:08.987Z,7.00
2023-04-21T12:41:11.759Z,6.50
2023-04-21T12:45:14.743Z,6.65
2023-04-21T12:49:18.962Z,6.43
2023-04-21T12:53:21.743Z,6.05
2023-04-21T12:57:24.571Z,6.33
2023-04-21T13:01:27.493Z,6.27
2023-04-21T13:05:31.773Z,5.57
2023-04-21T13:09:34.659Z,5.22
2023-04-21T13:13:37.539Z,6.03
2023-04-21T13:17:40.418Z,5.35
2023-04-21T13:21:45.190Z,5.32
2023-04-21T13:25:48.048Z,4.88
2023-04-21T13:29:50.901Z,4.15
2023-04-21T13:33:54.161Z,3.70
2023-04-21T13:37:58.623Z,3.73
2023-04-21T13:42:01.501Z,3.50
2023-04-21T13:46:04.381Z,2.78
2023-04-21T13:50:08.984Z,2.63
2023-04-21T13:54:13.248Z,2.40
2023-04-21T13:58:17.052Z,2.00
2023-04-21T14:02:21.438Z,2.03
2023-04-21T14:06:24.436Z,1.67
2023-04-21T14:10:28.679Z,2.00
2023-04-21T14:14:38.351Z,1.77
2023-04-21T14:18:45.086Z,2.00
2023-04-21T14:26:52.001Z,2.00
2023-04-21T14:30:54.805Z,2.10
2023-04-21T14:34:59.191Z,1.92
2023-04-21T14:39:02.090Z,1.88
2023-04-21T14:43:06.277Z,2.03
2023-04-21T14:47:10.751Z,2.47
2023-04-21T14:51:13.944Z,2.08
2023-04-21T14:55:17.037Z,2.60
2023-04-21T14:59:23.078Z,2.58
2023-04-21T15:03:26.306Z,2.13
2023-04-21T15:07:29.198Z,2.38
2023-04-21T15:11:32.494Z,2.25
2023-04-21T15:15:36.668Z,2.75
2023-04-21T15:19:39.483Z,2.80
2023-04-21T15:23:42.247Z,2.60
2023-04-21T15:27:45.379Z,2.40
2023-04-21T15:31:49.542Z,1.60
2023-04-21T15:35:52.404Z,2.03
2023-04-21T15:39:55.247Z,1.65
2023-04-21T15:43:58.090Z,1.70
2023-04-21T15:48:02.417Z,1.52
2023-04-21T15:52:06.624Z,1.70
2023-04-21T15:56:11.320Z,1.80
2023-04-21T16:00:15.632Z,2.28
2023-04-21T16:04:19.972Z,1.88
2023-04-21T16:08:22.936Z,1.80
2023-04-21T16:12:25.867Z,2.25
2023-04-21T16:16:28.815Z,1.85
2023-04-21T16:20:33.154Z,2.10
2023-04-21T16:24:36.706Z,2.03
2023-04-21T16:28:39.859Z,1.60
2023-04-21T16:32:42.652Z,1.83
2023-04-21T16:36:46.877Z,1.88
2023-04-21T16:40:49.720Z,2.10
2023-04-21T16:44:58.394Z,1.90
2023-04-21T16:49:01.345Z,1.77
2023-04-21T16:53:05.639Z,1.90
2023-04-21T16:57:08.467Z,1.83
2023-04-21T17:01:12.019Z,2.10
2023-04-21T17:05:16.414Z,2.88
2023-04-21T17:09:20.606Z,2.20
2023-04-21T17:13:23.492Z,2.42
2023-04-21T17:17:26.400Z,2.08
2023-04-21T17:21:29.294Z,1.83
2023-04-21T17:25:33.756Z,1.60
2023-04-21T17:29:36.803Z,1.95
2023-04-21T17:33:39.654Z,1.70
2023-04-21T17:37:42.593Z,2.47
2023-04-21T17:41:48.417Z,2.88
2023-04-21T17:45:51.631Z,2.92
2023-04-21T17:49:54.602Z,2.28
2023-04-21T17:53:57.475Z,2.25
2023-04-21T17:58:01.645Z,2.47
2023-04-21T18:02:05.226Z,2.60
2023-04-21T18:06:10.458Z,2.80
2023-04-21T18:10:13.353Z,3.08
2023-04-21T18:14:17.566Z,3.20
2023-04-21T18:18:20.486Z,4.07
2023-04-21T18:22:23.365Z,3.40
2023-04-21T18:26:26.550Z,3.33
2023-04-21T18:30:30.735Z,3.50
2023-04-21T18:34:33.564Z,4.35
2023-04-21T18:38:36.816Z,3.53
2023-04-21T18:42:39.981Z,3.60
2023-04-21T18:46:44.205Z,3.63
2023-04-21T18:50:47.301Z,3.28
2023-04-21T18:54:50.436Z,2.72
2023-04-21T18:58:53.465Z,2.58
2023-04-21T19:02:57.762Z,1.60
2023-04-21T19:07:01.808Z,1.05
2023-04-21T19:11:04.688Z,0.70
2023-04-21T19:15:08.605Z,0.60
2023-04-21T19:19:12.797Z,0.45
2023-04-21T19:23:15.614Z,0.57
2023-04-21T19:27:18.520Z,0.63
2023-04-21T19:31:23.918Z,0.45
2023-04-21T19:35:28.617Z,0.47
2023-04-21T19:39:32.427Z,0.30
2023-04-21T19:43:35.498Z,0.60
2023-04-21T19:47:38.339Z,0.40
2023-04-21T19:51:42.495Z,0.40
2023-04-21T19:55:46.341Z,0.50
2023-04-21T19:59:49.796Z,0.60
2023-04-21T20:03:53.113Z,0.65
2023-04-21T20:07:57.489Z,0.70
2023-04-21T20:12:00.313Z,0.40
2023-04-21T20:16:03.467Z,0.60
2023-04-21T20:20:09.246Z,0.40
2023-04-21T20:24:13.398Z,0.40
2023-04-21T20:28:16.360Z,0.70
2023-04-21T20:32:19.159Z,0.68
2023-04-21T20:36:22.218Z,0.85
2023-04-21T20:40:26.495Z,0.50
2023-04-21T20:44:31.353Z,0.50
2023-04-21T20:48:34.160Z,0.68
2023-04-21T20:52:36.941Z,0.90
2023-04-21T20:56:41.273Z,0.77
2023-04-21T21:00:44.070Z,0.65
2023-04-21T21:04:47.730Z,0.88
2023-04-21T21:08:50.575Z,0.98
2023-04-21T21:12:54.755Z,1.10
2023-04-21T21:16:57.533Z,1.40
2023-04-21T21:21:00.432Z,1.73
2023-04-21T21:25:03.161Z,1.60
2023-04-21T21:29:07.603Z,1.70
2023-04-21T21:33:11.733Z,2.08
2023-04-21T21:37:14.506Z,1.90
2023-04-21T21:41:19.726Z,1.80
2023-04-21T21:45:23.918Z,2.28
2023-04-21T21:49:26.701Z,2.10
2023-04-21T21:53:29.704Z,1.80
2023-04-21T21:57:32.450Z,1.88
2023-04-21T22:01:36.695Z,1.40
2023-04-21T22:05:39.574Z,1.48
2023-04-21T22:09:42.321Z,1.52
2023-04-21T22:13:45.032Z,1.60
2023-04-21T22:17:49.201Z,1.50
2023-04-21T22:21:52.199Z,1.40
2023-04-21T22:25:55.010Z,1.15
2023-04-21T22:30:00.508Z,1.40
2023-04-21T22:34:04.828Z,1.27
2023-04-21T22:38:07.695Z,1.42
2023-04-21T22:42:10.532Z,1.27
2023-04-21T22:46:13.604Z,1.30
2023-04-21T22:50:17.810Z,1.33
2023-04-21T22:54:20.807Z,1.25
2023-04-21T22:58:23.664Z,1.35
2023-04-21T23:02:26.594Z,1.52
2023-04-21T23:06:31.939Z,1.80
2023-04-21T23:10:34.819Z,1.80
2023-04-21T23:14:37.663Z,1.60
2023-04-21T23:18:40.558Z,1.63
2023-04-21T23:22:45.084Z,1.10
2023-04-21T23:26:47.974Z,1.10
2023-04-21T23:30:51.049Z,0.85
2023-04-21T23:34:53.955Z,1.25
2023-04-21T23:38:58.078Z,1.02
2023-04-21T23:43:01.111Z,0.98
2023-04-21T23:47:04.002Z,1.00
2023-04-21T23:51:07.129Z,3.08
2023-04-21T23:55:12.070Z,1.80
2023-04-21T23:59:14.798Z,1.00
